createdAt,value
2018-08-22T00:01:51.307Z,15.20
2018-08-22T00:06:54.432Z,15.10
2018-08-22T00:11:57.520Z,15.00
2018-08-22T00:17:00.872Z,15.00
2018-08-22T00:22:04.056Z,15.00
2018-08-22T00:27:07.155Z,14.90
2018-08-22T00:32:10.291Z,14.90
2018-08-22T00:37:13.399Z,14.90
2018-08-22T00:42:16.436Z,14.80
2018-08-22T00:47:20.520Z,14.80
2018-08-22T00:52:23.611Z,14.70
2018-08-22T00:57:26.734Z,14.70
2018-08-22T01:02:29.988Z,14.70
2018-08-22T01:07:34.401Z,14.70
2018-08-22T01:12:37.830Z,14.60
2018-08-22T01:17:40.904Z,14.50
2018-08-22T01:22:44.208Z,14.50
2018-08-22T01:27:47.274Z,14.40
2018-08-22T01:32:50.362Z,14.40
2018-08-22T01:37:53.619Z,14.30
2018-08-22T01:42:56.730Z,14.20
2018-08-22T01:47:59.852Z,14.20
2018-08-22T01:53:02.911Z,14.10
2018-08-22T01:58:05.971Z,14.10
2018-08-22T02:03:09.147Z,14.10
2018-08-22T02:08:12.497Z,14.00
2018-08-22T02:13:15.643Z,14.10
2018-08-22T02:18:18.730Z,14.10
2018-08-22T02:23:21.920Z,14.10
2018-08-22T02:28:25.120Z,14.10
2018-08-22T02:33:28.439Z,14.10
2018-08-22T02:38:31.589Z,14.10
2018-08-22T02:43:35.764Z,14.10
2018-08-22T02:48:44.339Z,14.20
2018-08-22T02:53:47.442Z,14.20
2018-08-22T02:58:50.535Z,14.20
2018-08-22T03:03:53.607Z,14.20
2018-08-22T03:08:56.657Z,14.10
2018-08-22T03:13:59.837Z,14.00
2018-08-22T03:19:02.932Z,14.00
2018-08-22T03:24:06.039Z,14.00
2018-08-22T03:34:20.456Z,13.90
2018-08-22T03:39:23.521Z,13.90
2018-08-22T03:44:26.628Z,13.90
2018-08-22T03:49:29.692Z,13.90
2018-08-22T03:54:32.830Z,13.90
2018-08-22T03:59:35.916Z,13.80
2018-08-22T04:04:39.077Z,13.80
2018-08-22T04:09:42.158Z,13.70
2018-08-22T04:14:45.242Z,13.70
2018-08-22T04:19:48.314Z,13.70
2018-08-22T04:24:51.402Z,13.70
2018-08-22T04:29:54.501Z,13.70
2018-08-22T04:34:58.065Z,13.80
2018-08-22T04:40:01.187Z,13.80
2018-08-22T04:45:04.338Z,13.80
2018-08-22T04:50:07.643Z,14.00
2018-08-22T04:55:10.853Z,14.10
2018-08-22T05:00:13.911Z,14.10
2018-08-22T05:05:17.070Z,14.10
2018-08-22T05:10:20.192Z,14.20
2018-08-22T05:15:24.587Z,14.40
2018-08-22T05:20:28.026Z,14.40
2018-08-22T05:25:31.702Z,14.50
2018-08-22T05:30:34.810Z,14.60
2018-08-22T05:35:37.942Z,14.70
2018-08-22T05:40:41.098Z,14.80
2018-08-22T05:45:44.258Z,15.00
2018-08-22T05:50:47.353Z,15.10
2018-08-22T05:55:51.720Z,15.30
2018-08-22T06:00:54.930Z,15.40
2018-08-22T06:05:58.028Z,15.60
2018-08-22T06:11:01.154Z,15.80
2018-08-22T06:16:04.247Z,16.00
2018-08-22T06:21:07.510Z,16.50
2018-08-22T06:26:10.603Z,17.40
2018-08-22T06:31:14.794Z,19.00
2018-08-22T06:36:17.978Z,20.90
2018-08-22T06:41:21.072Z,22.20
2018-08-22T06:46:24.195Z,23.30
2018-08-22T06:51:27.391Z,24.40
2018-08-22T06:56:30.483Z,24.90
2018-08-22T07:01:33.700Z,25.20
2018-08-22T07:06:36.868Z,25.00
2018-08-22T07:11:39.919Z,25.90
2018-08-22T07:21:45.993Z,27.10
2018-08-22T07:26:49.152Z,27.80
2018-08-22T07:31:52.248Z,28.80
2018-08-22T07:36:55.337Z,28.80
2018-08-22T07:41:58.461Z,28.80
2018-08-22T07:47:01.655Z,28.70
2018-08-22T07:52:04.834Z,28.80
2018-08-22T07:57:08.275Z,29.20
2018-08-22T08:02:11.563Z,29.80
2018-08-22T08:07:14.956Z,29.60
2018-08-22T08:12:20.051Z,29.60
2018-08-22T08:17:23.121Z,30.00
2018-08-22T08:22:26.168Z,30.70
2018-08-22T08:27:29.277Z,30.70
2018-08-22T08:32:32.367Z,31.10
2018-08-22T08:37:36.785Z,31.00
2018-08-22T08:42:39.930Z,31.30
2018-08-22T08:47:43.081Z,31.10
2018-08-22T08:52:46.251Z,30.30
2018-08-22T08:57:49.317Z,28.90
2018-08-22T09:02:52.501Z,28.20
2018-08-22T09:07:55.553Z,27.80
2018-08-22T09:12:58.664Z,27.30
2018-08-22T09:18:01.775Z,27.20
2018-08-22T09:23:05.290Z,26.40
2018-08-22T09:28:08.407Z,26.30
2018-08-22T09:33:11.477Z,26.20
2018-08-22T09:38:14.553Z,26.20
2018-08-22T09:43:17.636Z,26.10
2018-08-22T09:48:20.708Z,25.80
2018-08-22T09:53:24.183Z,25.40
2018-08-22T09:58:27.333Z,25.40
2018-08-22T10:03:44.686Z,25.40
2018-08-22T10:08:47.808Z,25.60
2018-08-22T10:13:50.910Z,25.70
2018-08-22T10:18:54.434Z,25.70
2018-08-22T10:23:57.570Z,25.50
2018-08-22T10:29:00.604Z,25.50
2018-08-22T10:34:03.695Z,25.40
2018-08-22T10:39:07.960Z,25.30
2018-08-22T10:44:11.020Z,25.50
2018-08-22T10:49:14.084Z,25.40
2018-08-22T10:54:17.247Z,25.40
2018-08-22T10:59:20.459Z,25.50
2018-08-22T11:04:23.623Z,25.50
2018-08-22T11:09:26.729Z,25.60
2018-08-22T11:14:29.796Z,25.40
2018-08-22T11:19:33.282Z,25.60
2018-08-22T11:24:48.035Z,25.80
2018-08-22T11:30:02.687Z,25.70
2018-08-22T11:35:04.898Z,25.70
2018-08-22T11:40:07.961Z,25.70
2018-08-22T11:45:11.035Z,25.60
2018-08-22T11:50:14.224Z,25.70
2018-08-22T11:55:17.252Z,25.70
2018-08-22T12:00:20.269Z,25.90
2018-08-22T12:05:23.434Z,25.90
2018-08-22T12:10:30.721Z,26.10
2018-08-22T12:15:34.708Z,26.20
2018-08-22T12:20:37.809Z,26.30
2018-08-22T12:25:41.072Z,26.40
2018-08-22T12:30:44.127Z,26.40
2018-08-22T12:35:47.221Z,26.30
2018-08-22T12:40:50.300Z,26.40
2018-08-22T12:45:53.518Z,26.30
2018-08-22T12:50:56.591Z,26.20
2018-08-22T12:55:59.645Z,26.20
2018-08-22T13:01:02.757Z,26.50
2018-08-22T13:06:06.425Z,26.40
2018-08-22T13:11:09.529Z,26.40
2018-08-22T13:16:12.548Z,26.40
2018-08-22T13:21:15.596Z,26.40
2018-08-22T13:26:18.608Z,26.60
2018-08-22T13:31:21.753Z,26.70
2018-08-22T13:36:24.785Z,26.80
2018-08-22T13:41:27.823Z,26.80
2018-08-22T13:46:30.903Z,26.90
2018-08-22T13:51:33.956Z,26.80
2018-08-22T13:56:36.991Z,26.70
2018-08-22T14:01:40.077Z,26.60
2018-08-22T14:06:43.254Z,26.70
2018-08-22T14:11:46.355Z,26.80
2018-08-22T14:16:49.430Z,26.90
2018-08-22T14:21:52.532Z,26.90
2018-08-22T14:26:55.638Z,27.00
2018-08-22T14:31:58.790Z,27.20
2018-08-22T14:37:01.834Z,27.20
2018-08-22T14:42:04.990Z,27.20
2018-08-22T14:47:08.068Z,27.00
2018-08-22T14:52:11.108Z,27.10
2018-08-22T14:57:14.203Z,27.00
2018-08-22T15:02:17.350Z,27.10
2018-08-22T15:07:20.333Z,27.00
2018-08-22T15:12:23.371Z,27.00
2018-08-22T15:17:26.527Z,27.10
2018-08-22T15:22:29.625Z,27.00
2018-08-22T15:27:32.693Z,27.00
2018-08-22T15:32:35.857Z,27.00
2018-08-22T15:37:38.993Z,27.00
2018-08-22T15:42:42.066Z,27.00
2018-08-22T15:47:45.179Z,27.00
2018-08-22T15:52:48.289Z,27.00
2018-08-22T15:57:58.659Z,26.90
2018-08-22T16:03:02.840Z,27.00
2018-08-22T16:08:06.113Z,26.90
2018-08-22T16:13:31.884Z,26.80
2018-08-22T16:18:35.014Z,26.70
2018-08-22T16:23:38.168Z,26.70
2018-08-22T16:28:53.708Z,26.60
2018-08-22T16:33:56.877Z,26.50
2018-08-22T16:39:00.805Z,26.50
2018-08-22T16:44:03.892Z,26.50
2018-08-22T16:49:06.976Z,26.30
2018-08-22T16:54:10.637Z,26.20
2018-08-22T16:59:13.867Z,26.10
2018-08-22T17:04:16.932Z,26.00
2018-08-22T17:09:19.968Z,25.90
2018-08-22T17:14:23.073Z,25.80
2018-08-22T17:19:27.183Z,25.70
2018-08-22T17:24:31.428Z,25.60
2018-08-22T17:29:34.487Z,25.40
2018-08-22T17:34:37.548Z,25.20
2018-08-22T17:39:40.586Z,25.10
2018-08-22T17:44:43.648Z,24.80
2018-08-22T17:49:58.318Z,24.70
2018-08-22T17:55:01.475Z,24.50
2018-08-22T18:00:04.531Z,24.30
2018-08-22T18:05:07.624Z,24.10
2018-08-22T18:10:10.687Z,23.90
2018-08-22T18:15:13.811Z,23.70
2018-08-22T18:20:16.921Z,23.50
2018-08-22T18:25:20.027Z,23.30
2018-08-22T18:30:23.160Z,23.10
2018-08-22T18:35:26.272Z,22.90
2018-08-22T18:40:30.441Z,22.80
2018-08-22T18:45:33.560Z,22.60
2018-08-22T18:50:37.755Z,22.50
2018-08-22T18:55:40.970Z,22.30
2018-08-22T19:00:44.171Z,22.20
2018-08-22T19:05:47.265Z,22.10
2018-08-22T19:10:51.007Z,21.90
2018-08-22T19:15:57.884Z,21.80
2018-08-22T19:21:02.418Z,21.70
2018-08-22T19:26:06.329Z,21.50
2018-08-22T19:31:09.458Z,21.40
2018-08-22T19:36:12.539Z,21.30
2018-08-22T19:41:23.679Z,21.20
2018-08-22T19:46:26.761Z,21.10
2018-08-22T19:51:30.929Z,21.00
2018-08-22T19:56:34.015Z,20.80
2018-08-22T20:01:37.975Z,20.80
2018-08-22T20:06:41.055Z,20.70
2018-08-22T20:11:44.146Z,20.60
2018-08-22T20:16:47.384Z,20.50
2018-08-22T20:21:50.459Z,20.50
2018-08-22T20:27:02.567Z,20.40
2018-08-22T20:32:09.470Z,20.40
2018-08-22T20:37:13.831Z,20.30
2018-08-22T20:42:17.283Z,20.30
2018-08-22T20:47:20.916Z,20.10
2018-08-22T20:52:24.121Z,20.00
2018-08-22T20:57:27.206Z,19.90
2018-08-22T21:02:30.432Z,19.80
2018-08-22T21:07:37.976Z,19.70
2018-08-22T21:12:41.043Z,19.70
2018-08-22T21:17:44.188Z,19.60
2018-08-22T21:22:47.338Z,19.50
2018-08-22T21:27:51.048Z,19.50
2018-08-22T21:32:54.126Z,19.40
2018-08-22T21:38:04.356Z,19.40
2018-08-22T21:43:07.422Z,19.40
2018-08-22T21:48:15.333Z,19.30
2018-08-22T21:53:18.394Z,19.20
2018-08-22T21:58:21.486Z,19.20
2018-08-22T22:03:30.180Z,19.10
2018-08-22T22:08:33.239Z,19.00
2018-08-22T22:13:36.324Z,19.00
2018-08-22T22:18:39.394Z,18.90
2018-08-22T22:23:47.883Z,18.90
2018-08-22T22:28:51.552Z,18.80
2018-08-22T22:33:58.666Z,18.70
2018-08-22T22:39:01.799Z,18.70
2018-08-22T22:44:05.056Z,18.60
2018-08-22T22:49:08.127Z,18.50
2018-08-22T22:54:11.225Z,18.50
2018-08-22T22:59:14.282Z,18.50
2018-08-22T23:04:17.386Z,18.40
2018-08-22T23:09:21.454Z,18.40
2018-08-22T23:14:24.564Z,18.30
2018-08-22T23:19:27.707Z,18.30
2018-08-22T23:24:30.789Z,18.20
2018-08-22T23:29:33.900Z,18.10
2018-08-22T23:34:36.953Z,18.00
2018-08-22T23:39:40.112Z,18.00
2018-08-22T23:44:44.438Z,17.90
2018-08-22T23:49:47.510Z,17.80
2018-08-22T23:54:50.538Z,17.80
2018-08-22T23:59:53.723Z,17.70
